createdAt,value
2018-06-03T00:01:01.544Z,5.05
2018-06-03T00:03:29.046Z,4.35
2018-06-03T00:05:56.484Z,5.30
2018-06-03T00:08:24.015Z,4.95
2018-06-03T00:10:51.510Z,3.92
2018-06-03T00:13:18.947Z,6.32
2018-06-03T00:15:48.252Z,5.65
2018-06-03T00:18:15.758Z,6.80
2018-06-03T00:20:52.956Z,4.45
2018-06-03T00:23:20.411Z,5.25
2018-06-03T00:25:47.803Z,5.95
2018-06-03T00:28:15.281Z,3.62
2018-06-03T00:30:43.013Z,4.93
2018-06-03T00:33:10.465Z,4.72
2018-06-03T00:35:49.719Z,4.25
2018-06-03T00:38:29.466Z,4.20
2018-06-03T00:40:56.896Z,4.82
2018-06-03T00:43:24.515Z,3.85
2018-06-03T00:45:51.999Z,4.20
2018-06-03T00:48:19.432Z,3.70
2018-06-03T00:50:46.898Z,4.20
2018-06-03T00:53:14.351Z,4.95
2018-06-03T00:55:42.803Z,4.90
2018-06-03T00:58:10.296Z,5.20
2018-06-03T01:00:37.772Z,5.12
2018-06-03T01:03:05.171Z,4.43
2018-06-03T01:05:32.625Z,4.85
2018-06-03T01:08:00.059Z,3.65
2018-06-03T01:10:27.536Z,3.90
2018-06-03T01:12:54.968Z,4.07
2018-06-03T01:15:23.617Z,3.47
2018-06-03T01:17:51.182Z,4.15
2018-06-03T01:20:18.614Z,4.47
2018-06-03T01:22:46.026Z,3.50
2018-06-03T01:25:13.469Z,3.35
2018-06-03T01:27:41.583Z,4.90
2018-06-03T01:30:09.347Z,4.82
2018-06-03T01:32:37.506Z,4.40
2018-06-03T01:35:05.212Z,3.17
2018-06-03T01:37:32.624Z,3.05
2018-06-03T01:40:00.052Z,3.65
2018-06-03T01:42:27.486Z,4.20
2018-06-03T01:44:54.892Z,4.75
2018-06-03T01:47:22.381Z,3.62
2018-06-03T01:49:49.827Z,3.95
2018-06-03T01:52:17.260Z,3.60
2018-06-03T01:54:44.688Z,3.22
2018-06-03T01:57:12.199Z,4.00
2018-06-03T01:59:39.804Z,3.90
2018-06-03T02:02:07.220Z,4.30
2018-06-03T02:04:35.244Z,4.12
2018-06-03T02:07:02.733Z,4.50
2018-06-03T02:09:30.150Z,5.40
2018-06-03T02:11:57.590Z,4.03
2018-06-03T02:14:25.091Z,4.43
2018-06-03T02:16:53.366Z,3.78
2018-06-03T02:19:20.829Z,3.58
2018-06-03T02:21:48.255Z,3.12
2018-06-03T02:24:15.678Z,3.35
2018-06-03T02:26:43.082Z,4.68
2018-06-03T02:31:49.225Z,2.70
2018-06-03T02:34:17.502Z,3.42
2018-06-03T02:36:45.019Z,4.35
2018-06-03T02:39:13.669Z,3.53
2018-06-03T02:41:41.137Z,3.97
2018-06-03T02:46:41.203Z,4.18
2018-06-03T02:49:08.764Z,4.75
2018-06-03T02:51:36.247Z,4.55
2018-06-03T02:54:03.724Z,3.70
2018-06-03T02:56:31.196Z,3.58
2018-06-03T02:58:58.680Z,3.78
2018-06-03T03:01:26.137Z,2.78
2018-06-03T03:03:53.568Z,3.97
2018-06-03T03:06:21.045Z,3.35
2018-06-03T03:08:48.441Z,3.65
2018-06-03T03:11:15.893Z,3.92
2018-06-03T03:13:44.327Z,4.00
2018-06-03T03:16:11.765Z,3.30
2018-06-03T03:18:39.401Z,4.35
2018-06-03T03:21:08.026Z,3.72
2018-06-03T03:23:35.507Z,4.10
2018-06-03T03:26:02.969Z,3.83
2018-06-03T03:28:30.532Z,4.20
2018-06-03T03:30:58.024Z,4.65
2018-06-03T03:33:26.632Z,5.70
2018-06-03T03:35:54.102Z,8.35
2018-06-03T03:38:21.532Z,4.90
2018-06-03T03:40:48.964Z,5.10
2018-06-03T03:43:16.386Z,6.97
2018-06-03T03:45:43.859Z,7.93
2018-06-03T03:48:11.494Z,5.18
2018-06-03T03:50:38.902Z,4.53
2018-06-03T03:53:07.343Z,6.93
2018-06-03T03:55:34.786Z,5.65
2018-06-03T03:58:02.231Z,3.85
2018-06-03T04:00:30.227Z,4.90
2018-06-03T04:02:57.714Z,5.40
2018-06-03T04:05:28.909Z,4.60
2018-06-03T04:07:56.418Z,3.65
2018-06-03T04:10:26.317Z,3.00
2018-06-03T04:12:53.978Z,3.95
2018-06-03T04:15:21.362Z,5.07
2018-06-03T04:17:48.873Z,4.37
2018-06-03T04:20:16.383Z,3.05
2018-06-03T04:22:43.935Z,5.15
2018-06-03T04:25:13.144Z,3.75
2018-06-03T04:27:40.587Z,3.58
2018-06-03T04:30:08.028Z,3.90
2018-06-03T04:32:39.108Z,3.67
2018-06-03T04:35:06.577Z,3.67
2018-06-03T04:37:34.015Z,4.95
2018-06-03T04:40:01.501Z,6.35
2018-06-03T04:42:29.769Z,5.85
2018-06-03T04:44:58.093Z,3.55
2018-06-03T04:47:25.583Z,3.70
2018-06-03T04:49:52.988Z,3.50
2018-06-03T04:52:20.509Z,3.75
2018-06-03T04:54:48.058Z,4.07
2018-06-03T04:57:15.508Z,4.10
2018-06-03T04:59:42.994Z,4.60
2018-06-03T05:02:10.451Z,3.80
2018-06-03T05:04:37.930Z,4.05
2018-06-03T05:09:39.241Z,3.83
2018-06-03T05:12:06.758Z,4.30
2018-06-03T05:14:34.199Z,2.85
2018-06-03T05:17:01.623Z,3.42
2018-06-03T05:19:29.097Z,3.72
2018-06-03T05:21:56.540Z,2.65
2018-06-03T05:24:24.160Z,4.22
2018-06-03T05:26:51.670Z,3.40
2018-06-03T05:29:19.097Z,3.60
2018-06-03T05:31:47.363Z,3.72
2018-06-03T05:34:15.462Z,4.22
2018-06-03T05:36:43.668Z,2.97
2018-06-03T05:39:11.130Z,3.50
2018-06-03T05:41:38.596Z,2.92
2018-06-03T05:44:06.105Z,3.35
2018-06-03T05:46:36.369Z,2.72
2018-06-03T05:49:04.302Z,2.12
2018-06-03T05:51:31.855Z,4.00
2018-06-03T05:54:00.419Z,3.72
2018-06-03T05:56:27.869Z,3.58
2018-06-03T05:58:55.320Z,3.28
2018-06-03T06:01:22.816Z,2.25
2018-06-03T06:03:50.212Z,2.75
2018-06-03T06:06:17.657Z,2.58
2018-06-03T06:08:45.124Z,2.47
2018-06-03T06:11:12.615Z,3.10
2018-06-03T06:13:40.125Z,3.35
2018-06-03T06:16:08.544Z,3.20
2018-06-03T06:18:35.992Z,3.42
2018-06-03T06:21:03.381Z,3.53
2018-06-03T06:23:31.696Z,2.55
2018-06-03T06:25:59.100Z,2.20
2018-06-03T06:28:26.584Z,2.45
2018-06-03T06:30:54.082Z,2.90
2018-06-03T06:33:23.207Z,2.10
2018-06-03T06:35:50.702Z,3.00
2018-06-03T06:38:18.167Z,2.58
2018-06-03T06:40:46.290Z,2.20
2018-06-03T06:43:13.852Z,3.25
2018-06-03T06:45:41.312Z,2.60
2018-06-03T06:48:09.348Z,2.17
2018-06-03T06:50:36.923Z,2.33
2018-06-03T06:53:04.372Z,2.80
2018-06-03T06:55:31.863Z,3.25
2018-06-03T06:58:00.180Z,3.50
2018-06-03T07:00:27.690Z,3.08
2018-06-03T07:02:55.202Z,2.22
2018-06-03T07:05:22.683Z,3.00
2018-06-03T07:07:50.147Z,2.70
2018-06-03T07:10:17.560Z,3.83
2018-06-03T07:12:45.008Z,3.80
2018-06-03T07:15:12.527Z,5.75
2018-06-03T07:17:40.121Z,2.45
2018-06-03T07:20:07.770Z,2.95
2018-06-03T07:22:35.512Z,2.60
2018-06-03T07:25:03.793Z,1.70
2018-06-03T07:27:31.238Z,1.83
2018-06-03T07:29:58.748Z,2.80
2018-06-03T07:32:26.183Z,1.92
2018-06-03T07:34:53.675Z,2.62
2018-06-03T07:37:21.208Z,2.75
2018-06-03T07:39:48.677Z,3.60
2018-06-03T07:42:16.133Z,3.33
2018-06-03T07:44:43.740Z,2.90
2018-06-03T07:52:05.344Z,3.50
2018-06-03T07:54:33.103Z,3.20
2018-06-03T07:57:00.557Z,4.30
2018-06-03T08:01:55.038Z,3.28
2018-06-03T08:04:22.629Z,3.72
2018-06-03T08:06:50.071Z,3.55
2018-06-03T08:09:17.580Z,4.15
2018-06-03T08:11:45.080Z,4.25
2018-06-03T08:14:12.538Z,3.53
2018-06-03T08:16:40.334Z,4.07
2018-06-03T08:19:08.726Z,4.45
2018-06-03T08:21:36.165Z,3.90
2018-06-03T08:24:03.592Z,4.07
2018-06-03T08:26:31.103Z,4.55
2018-06-03T08:28:58.554Z,4.27
2018-06-03T08:31:26.017Z,4.20
2018-06-03T08:33:53.539Z,4.10
2018-06-03T08:36:20.980Z,3.95
2018-06-03T08:38:48.477Z,4.25
2018-06-03T08:41:16.395Z,3.65
2018-06-03T08:43:43.841Z,4.00
2018-06-03T08:46:11.329Z,4.55
2018-06-03T08:48:38.767Z,4.78
2018-06-03T08:51:06.237Z,4.25
2018-06-03T08:53:33.666Z,4.90
2018-06-03T08:56:01.155Z,4.18
2018-06-03T08:58:28.585Z,4.12
2018-06-03T09:00:56.056Z,4.40
2018-06-03T09:03:24.228Z,5.32
2018-06-03T09:05:52.569Z,4.00
2018-06-03T09:08:20.718Z,3.62
2018-06-03T09:10:48.199Z,3.72
2018-06-03T09:13:16.350Z,4.45
2018-06-03T09:15:43.827Z,5.80
2018-06-03T09:18:11.327Z,4.25
2018-06-03T09:20:38.773Z,4.70
2018-06-03T09:23:06.412Z,5.15
2018-06-03T09:25:33.857Z,5.78
2018-06-03T09:28:02.267Z,4.85
2018-06-03T09:30:30.084Z,4.62
2018-06-03T09:32:57.945Z,4.65
2018-06-03T09:35:25.397Z,6.22
2018-06-03T09:37:53.012Z,5.35
2018-06-03T09:40:20.780Z,5.10
2018-06-03T09:42:49.220Z,6.15
2018-06-03T09:45:16.683Z,5.10
2018-06-03T09:47:44.225Z,6.18
2018-06-03T09:50:11.630Z,5.20
2018-06-03T09:55:06.613Z,5.50
2018-06-03T09:57:34.077Z,6.60
2018-06-03T10:04:56.599Z,6.50
2018-06-03T10:27:03.562Z,6.93
2018-06-03T10:29:31.032Z,6.60
2018-06-03T10:31:58.499Z,15.70
2018-06-03T10:34:25.903Z,10.17
2018-06-03T10:36:53.824Z,5.75
2018-06-03T10:39:21.283Z,6.78
2018-06-03T10:41:49.643Z,6.35
2018-06-03T10:44:17.141Z,5.65
2018-06-03T10:46:44.601Z,3.90
2018-06-03T10:49:12.126Z,5.80
2018-06-03T10:51:39.612Z,4.62
2018-06-03T10:54:08.150Z,5.07
2018-06-03T10:56:35.647Z,4.75
2018-06-03T10:59:03.129Z,5.90
2018-06-03T11:01:30.572Z,5.10
2018-06-03T11:03:58.078Z,4.50
2018-06-03T11:06:25.508Z,6.20
2018-06-03T11:13:48.457Z,6.50
2018-06-03T11:18:43.026Z,7.90
2018-06-03T11:21:11.147Z,5.20
2018-06-03T11:23:39.205Z,6.62
2018-06-03T11:26:06.627Z,5.95
2018-06-03T11:28:34.087Z,6.15
2018-06-03T11:31:01.571Z,6.62
2018-06-03T11:33:28.990Z,5.57
2018-06-03T11:35:56.443Z,5.70
2018-06-03T11:38:24.924Z,5.68
2018-06-03T11:40:53.285Z,5.55
2018-06-03T11:43:20.741Z,7.35
2018-06-03T11:45:48.410Z,7.32
2018-06-03T11:48:16.588Z,5.68
2018-06-03T11:50:44.133Z,7.90
2018-06-03T11:53:11.585Z,6.45
2018-06-03T11:55:38.997Z,5.50
2018-06-03T11:58:18.454Z,5.30
2018-06-03T12:00:45.964Z,6.50
2018-06-03T12:03:13.602Z,3.75
2018-06-03T12:05:41.068Z,7.65
2018-06-03T12:08:08.610Z,7.07
2018-06-03T12:10:36.027Z,4.57
2018-06-03T12:13:03.948Z,5.75
2018-06-03T12:15:31.473Z,5.35
2018-06-03T12:17:58.877Z,7.20
2018-06-03T12:20:26.364Z,6.10
2018-06-03T12:22:53.798Z,6.40
2018-06-03T12:25:21.370Z,7.90
2018-06-03T12:27:48.796Z,5.10
2018-06-03T12:30:16.238Z,4.32
2018-06-03T12:32:43.690Z,4.70
2018-06-03T12:35:11.392Z,5.97
2018-06-03T12:37:38.827Z,5.05
2018-06-03T12:40:06.313Z,4.00
2018-06-03T12:42:34.102Z,5.18
2018-06-03T12:45:03.590Z,6.35
2018-06-03T12:47:31.311Z,5.70
2018-06-03T12:49:58.781Z,6.50
2018-06-03T12:52:26.330Z,6.22
2018-06-03T12:54:53.803Z,7.90
2018-06-03T12:57:21.199Z,6.05
2018-06-03T12:59:48.874Z,5.40
2018-06-03T13:02:16.339Z,6.75
2018-06-03T13:04:43.787Z,5.82
2018-06-03T13:07:11.246Z,9.10
2018-06-03T13:09:38.794Z,5.78
2018-06-03T13:12:06.437Z,7.30
2018-06-03T13:14:34.337Z,7.57
2018-06-03T13:17:01.770Z,6.10
2018-06-03T13:19:29.436Z,5.15
2018-06-03T13:21:56.913Z,6.15
2018-06-03T13:24:25.345Z,6.18
2018-06-03T13:26:52.774Z,5.40
2018-06-03T13:29:20.217Z,5.75
2018-06-03T13:31:48.457Z,6.85
2018-06-03T13:34:15.927Z,6.07
2018-06-03T13:36:43.333Z,7.53
2018-06-03T13:39:10.965Z,5.32
2018-06-03T13:41:38.406Z,5.65
2018-06-03T13:44:06.760Z,4.32
2018-06-03T13:46:34.196Z,5.85
2018-06-03T13:49:02.279Z,4.80
2018-06-03T13:51:29.820Z,6.80
2018-06-03T13:53:57.222Z,5.62
2018-06-03T13:56:24.699Z,5.68
2018-06-03T13:58:52.145Z,4.70
2018-06-03T14:01:19.868Z,5.50
2018-06-03T14:03:47.357Z,5.47
2018-06-03T14:06:14.879Z,4.95
2018-06-03T14:08:42.326Z,5.35
2018-06-03T14:11:09.808Z,4.40
2018-06-03T14:13:37.870Z,3.75
2018-06-03T14:16:05.537Z,5.50
2018-06-03T14:18:33.114Z,4.32
2018-06-03T14:21:02.325Z,4.18
2018-06-03T14:23:29.982Z,4.72
2018-06-03T14:25:57.475Z,5.95
2018-06-03T14:28:25.079Z,6.35
2018-06-03T14:30:52.612Z,4.65
2018-06-03T14:33:20.253Z,5.78
2018-06-03T14:35:48.815Z,5.60
2018-06-03T14:38:16.400Z,4.65
2018-06-03T14:40:44.479Z,4.95
2018-06-03T14:43:12.193Z,5.43
2018-06-03T14:45:39.684Z,4.78
2018-06-03T14:48:08.148Z,5.45
2018-06-03T14:50:35.666Z,5.12
2018-06-03T14:53:04.193Z,3.58
2018-06-03T14:55:31.635Z,3.83
2018-06-03T14:57:59.132Z,4.10
2018-06-03T15:00:26.579Z,4.35
2018-06-03T15:02:54.094Z,5.03
2018-06-03T15:05:21.624Z,5.10
2018-06-03T15:07:49.219Z,4.37
2018-06-03T15:10:16.634Z,5.35
2018-06-03T15:12:44.147Z,4.70
2018-06-03T15:15:11.583Z,5.05
2018-06-03T15:17:39.048Z,4.20
2018-06-03T15:20:06.553Z,4.60
2018-06-03T15:22:34.010Z,5.15
2018-06-03T15:25:01.431Z,4.20
2018-06-03T15:27:28.918Z,4.32
2018-06-03T15:29:56.388Z,4.50
2018-06-03T15:32:23.815Z,5.47
2018-06-03T15:34:51.352Z,4.32
2018-06-03T15:37:18.860Z,5.35
2018-06-03T15:39:46.306Z,5.35
2018-06-03T15:42:13.721Z,4.60
2018-06-03T15:44:41.321Z,4.75
2018-06-03T15:47:09.626Z,4.87
2018-06-03T15:49:45.784Z,4.80
2018-06-03T15:52:13.666Z,4.03
2018-06-03T15:54:42.454Z,5.72
2018-06-03T15:57:09.891Z,3.97
2018-06-03T15:59:37.329Z,4.65
2018-06-03T16:02:04.827Z,4.20
2018-06-03T16:04:32.341Z,7.47
2018-06-03T16:07:00.031Z,4.60
2018-06-03T16:09:27.556Z,6.07
2018-06-03T16:11:55.042Z,4.55
2018-06-03T16:14:22.523Z,5.80
2018-06-03T16:16:50.047Z,4.90
2018-06-03T16:19:17.598Z,4.35
2018-06-03T16:21:45.099Z,4.18
2018-06-03T16:24:12.591Z,4.62
2018-06-03T16:26:40.002Z,3.92
2018-06-03T16:29:08.387Z,3.70
2018-06-03T16:31:35.908Z,4.35
2018-06-03T16:34:03.476Z,3.45
2018-06-03T16:36:30.913Z,4.35
2018-06-03T16:38:58.379Z,4.87
2018-06-03T16:41:25.868Z,3.95
2018-06-03T16:43:53.457Z,4.65
2018-06-03T16:46:20.895Z,4.47
2018-06-03T16:48:48.463Z,6.45
2018-06-03T16:51:15.937Z,5.05
2018-06-03T16:53:43.500Z,3.55
2018-06-03T16:56:10.963Z,7.18
2018-06-03T16:58:38.524Z,6.35
2018-06-03T17:01:05.980Z,5.03
2018-06-03T17:03:34.619Z,5.30
2018-06-03T17:06:02.065Z,4.40
2018-06-03T17:08:29.554Z,7.20
2018-06-03T17:10:57.059Z,6.78
2018-06-03T17:13:24.475Z,6.72
2018-06-03T17:15:52.006Z,6.60
2018-06-03T17:18:19.495Z,6.32
2018-06-03T17:20:46.950Z,5.57
2018-06-03T17:23:14.355Z,5.65
2018-06-03T17:25:44.700Z,3.97
2018-06-03T17:28:12.107Z,5.68
2018-06-03T17:30:39.772Z,6.22
2018-06-03T17:33:07.184Z,8.27
2018-06-03T17:35:34.626Z,6.68
2018-06-03T17:38:02.196Z,6.75
2018-06-03T17:40:29.740Z,7.07
2018-06-03T17:42:57.199Z,7.32
2018-06-03T17:45:24.680Z,5.65
2018-06-03T17:47:52.283Z,7.35
2018-06-03T17:50:19.812Z,5.10
2018-06-03T17:52:47.299Z,5.18
2018-06-03T17:55:14.790Z,5.47
2018-06-03T17:57:42.370Z,4.70
2018-06-03T18:00:09.975Z,6.35
2018-06-03T18:02:38.069Z,4.97
2018-06-03T18:05:05.540Z,4.05
2018-06-03T18:07:33.163Z,3.30
2018-06-03T18:10:00.684Z,2.95
2018-06-03T18:12:28.180Z,3.25
2018-06-03T18:14:55.590Z,1.80
2018-06-03T18:17:23.658Z,1.73
2018-06-03T18:19:51.058Z,1.77
2018-06-03T18:22:20.324Z,1.00
2018-06-03T18:24:47.925Z,1.00
2018-06-03T18:27:15.366Z,1.00
2018-06-03T18:29:42.746Z,1.87
2018-06-03T18:32:10.297Z,1.20
2018-06-03T18:34:37.819Z,1.23
2018-06-03T18:37:05.259Z,2.37
2018-06-03T18:39:32.791Z,1.35
2018-06-03T18:42:00.261Z,1.40
2018-06-03T18:44:27.807Z,1.85
2018-06-03T18:46:55.296Z,1.20
2018-06-03T18:49:22.789Z,2.55
2018-06-03T18:51:51.242Z,1.12
2018-06-03T18:54:18.794Z,2.70
2018-06-03T18:56:46.260Z,2.42
2018-06-03T18:59:14.223Z,1.73
2018-06-03T19:01:42.579Z,1.98
2018-06-03T19:04:10.023Z,1.37
2018-06-03T19:06:37.491Z,1.10
2018-06-03T19:09:04.891Z,1.30
2018-06-03T19:11:33.182Z,2.00
2018-06-03T19:14:02.110Z,1.67
2018-06-03T19:16:29.630Z,2.05
2018-06-03T19:18:57.208Z,2.12
2018-06-03T19:21:24.767Z,1.40
2018-06-03T19:23:52.187Z,1.90
2018-06-03T19:26:19.638Z,1.62
2018-06-03T19:28:47.053Z,2.55
2018-06-03T19:31:14.518Z,1.62
2018-06-03T19:33:42.016Z,2.05
2018-06-03T19:36:09.609Z,3.92
2018-06-03T19:38:37.031Z,2.50
2018-06-03T19:41:04.471Z,3.70
2018-06-03T19:43:31.962Z,2.80
2018-06-03T19:45:59.419Z,2.75
2018-06-03T19:48:27.071Z,2.03
2018-06-03T19:50:55.384Z,2.97
2018-06-03T19:53:23.479Z,1.95
2018-06-03T19:55:50.933Z,2.00
2018-06-03T19:58:18.575Z,2.25
2018-06-03T20:00:47.074Z,2.45
2018-06-03T20:03:14.585Z,2.92
2018-06-03T20:05:42.028Z,2.40
2018-06-03T20:08:09.613Z,2.33
2018-06-03T20:10:37.341Z,2.22
2018-06-03T20:13:04.883Z,1.90
2018-06-03T20:15:32.379Z,2.22
2018-06-03T20:18:01.206Z,2.35
2018-06-03T20:20:28.699Z,2.47
2018-06-03T20:22:56.326Z,1.70
2018-06-03T20:25:23.819Z,2.00
2018-06-03T20:27:51.394Z,2.70
2018-06-03T20:30:18.846Z,2.37
2018-06-03T20:32:46.337Z,2.15
2018-06-03T20:35:15.945Z,2.50
2018-06-03T20:37:43.427Z,2.45
2018-06-03T20:40:11.550Z,2.28
2018-06-03T20:42:39.083Z,2.55
2018-06-03T20:45:06.482Z,2.03
2018-06-03T20:47:33.964Z,2.40
2018-06-03T20:50:01.452Z,2.17
2018-06-03T20:52:28.957Z,3.05
2018-06-03T20:54:56.391Z,2.42
2018-06-03T20:57:23.880Z,2.42
2018-06-03T20:59:51.529Z,2.30
2018-06-03T21:02:19.103Z,2.75
2018-06-03T21:04:48.064Z,1.98
2018-06-03T21:07:15.581Z,2.72
2018-06-03T21:09:43.027Z,2.35
2018-06-03T21:12:10.460Z,3.20
2018-06-03T21:14:38.018Z,3.00
2018-06-03T21:17:05.402Z,2.65
2018-06-03T21:19:35.683Z,2.40
2018-06-03T21:22:03.090Z,2.65
2018-06-03T21:24:30.585Z,2.20
2018-06-03T21:26:58.020Z,2.78
2018-06-03T21:29:25.460Z,2.30
2018-06-03T21:31:52.868Z,2.12
2018-06-03T21:34:22.328Z,2.75
2018-06-03T21:36:49.880Z,3.28
2018-06-03T21:39:17.996Z,3.37
2018-06-03T21:41:46.609Z,4.30
2018-06-03T21:44:14.063Z,1.83
2018-06-03T21:46:41.459Z,3.72
2018-06-03T21:49:09.000Z,3.67
2018-06-03T21:51:36.465Z,2.55
2018-06-03T21:54:03.863Z,4.00
2018-06-03T21:56:32.278Z,3.40
2018-06-03T21:58:59.710Z,3.00
2018-06-03T22:01:27.450Z,3.87
2018-06-03T22:03:54.922Z,2.78
2018-06-03T22:06:23.541Z,3.12
2018-06-03T22:08:51.110Z,2.47
2018-06-03T22:11:18.608Z,2.00
2018-06-03T22:13:46.439Z,3.15
2018-06-03T22:16:14.152Z,2.72
2018-06-03T22:18:41.690Z,2.85
2018-06-03T22:21:09.955Z,1.85
2018-06-03T22:23:37.405Z,2.22
2018-06-03T22:26:05.703Z,3.28
2018-06-03T22:28:33.153Z,2.65
2018-06-03T22:31:00.565Z,2.33
2018-06-03T22:33:28.000Z,2.30
2018-06-03T22:35:55.559Z,2.67
2018-06-03T22:38:23.032Z,1.80
2018-06-03T22:40:50.433Z,2.30
2018-06-03T22:43:17.843Z,1.92
2018-06-03T22:45:45.290Z,2.95
2018-06-03T22:48:12.768Z,2.33
2018-06-03T22:53:12.182Z,2.67
2018-06-03T22:55:40.544Z,2.50
2018-06-03T22:58:08.042Z,2.53
2018-06-03T23:00:35.539Z,2.00
2018-06-03T23:03:03.041Z,1.90
2018-06-03T23:05:30.437Z,1.83
2018-06-03T23:07:57.898Z,2.08
2018-06-03T23:10:25.511Z,1.90
2018-06-03T23:12:53.003Z,2.22
2018-06-03T23:15:20.488Z,2.08
2018-06-03T23:17:47.975Z,1.70
2018-06-03T23:20:15.436Z,2.80
2018-06-03T23:22:42.842Z,2.87
2018-06-03T23:25:10.369Z,2.20
2018-06-03T23:27:38.801Z,2.40
2018-06-03T23:30:06.261Z,2.67
2018-06-03T23:32:33.748Z,2.85
2018-06-03T23:35:01.210Z,1.77
2018-06-03T23:37:29.513Z,3.03
2018-06-03T23:39:56.970Z,2.10
2018-06-03T23:42:24.426Z,2.50
2018-06-03T23:44:53.064Z,3.00
2018-06-03T23:47:20.513Z,3.58
2018-06-03T23:49:47.972Z,2.62
2018-06-03T23:52:15.384Z,2.58
2018-06-03T23:54:42.859Z,2.67
2018-06-03T23:57:10.268Z,2.35
2018-06-03T23:59:37.671Z,3.03
